sensor_id;sensor_type;location;lat;lon;timestamp;pressure;altitude;pressure_sealevel;temperature;humidity
18275;BME280;19470;49.322;7.218;2023-02-18T20:47:41;99402.66;;;14.03;100.00
18275;BME280;19470;49.322;7.218;2023-02-18T20:50:08;99402.97;;;14.07;100.00
18275;BME280;19470;49.322;7.218;2023-02-18T20:52:38;99402.25;;;13.22;100.00
18275;BME280;19470;49.322;7.218;2023-02-18T20:55:07;99396.16;;;13.77;100.00
18275;BME280;19470;49.322;7.218;2023-02-18T20:57:34;99407.47;;;14.06;100.00
18275;BME280;19470;49.322;7.218;2023-02-18T21:00:03;99406.72;;;13.89;100.00
18275;BME280;19470;49.322;7.218;2023-02-18T21:02:33;99412.06;;;14.11;100.00
18275;BME280;19470;49.322;7.218;2023-02-18T21:09:00;99413.19;;;13.60;100.00
18275;BME280;19470;49.322;7.218;2023-02-18T21:14:48;99391.75;;;13.66;100.00
18275;BME280;19470;49.322;7.218;2023-02-18T21:17:24;99398.50;;;13.91;100.00
18275;BME280;19470;49.322;7.218;2023-02-18T21:19:52;99395.97;;;14.23;100.00
18275;BME280;19470;49.322;7.218;2023-02-18T21:25:40;99390.63;;;13.62;100.00
18275;BME280;19470;49.322;7.218;2023-02-18T21:28:07;99395.22;;;13.84;100.00
18275;BME280;19470;49.322;7.218;2023-02-18T21:30:35;99385.09;;;13.86;100.00
18275;BME280;19470;49.322;7.218;2023-02-18T21:33:03;99381.25;;;13.60;100.00
18275;BME280;19470;49.322;7.218;2023-02-18T21:35:34;99380.34;;;13.32;100.00
18275;BME280;19470;49.322;7.218;2023-02-18T21:38:00;99374.88;;;14.16;100.00
18275;BME280;19470;49.322;7.218;2023-02-18T21:40:29;99366.63;;;14.40;99.99
18275;BME280;19470;49.322;7.218;2023-02-18T21:43:23;99379.00;;;13.18;100.00
18275;BME280;19470;49.322;7.218;2023-02-18T21:45:50;99377.53;;;13.10;100.00
18275;BME280;19470;49.322;7.218;2023-02-18T21:48:19;99368.63;;;13.50;100.00
18275;BME280;19470;49.322;7.218;2023-02-18T21:51:03;99358.28;;;13.70;100.00
18275;BME280;19470;49.322;7.218;2023-02-18T21:53:30;99362.38;;;14.66;99.57
18275;BME280;19470;49.322;7.218;2023-02-18T21:55:56;99371.13;;;13.40;100.00
18275;BME280;19470;49.322;7.218;2023-02-18T21:58:23;99364.34;;;13.49;100.00
18275;BME280;19470;49.322;7.218;2023-02-18T22:00:55;99361.47;;;13.34;100.00
18275;BME280;19470;49.322;7.218;2023-02-18T22:03:23;99365.94;;;13.67;100.00
18275;BME280;19470;49.322;7.218;2023-02-18T22:05:50;99361.41;;;13.67;100.00
18275;BME280;19470;49.322;7.218;2023-02-18T22:08:16;99367.91;;;13.38;100.00
18275;BME280;19470;49.322;7.218;2023-02-18T22:10:43;99350.97;;;13.82;100.00
18275;BME280;19470;49.322;7.218;2023-02-18T22:13:09;99349.38;;;13.81;100.00
18275;BME280;19470;49.322;7.218;2023-02-18T22:15:36;99350.66;;;13.23;100.00
18275;BME280;19470;49.322;7.218;2023-02-18T22:18:02;99338.94;;;12.91;100.00
18275;BME280;19470;49.322;7.218;2023-02-18T22:20:30;99345.44;;;13.28;100.00
18275;BME280;19470;49.322;7.218;2023-02-18T22:22:57;99337.34;;;13.57;100.00
18275;BME280;19470;49.322;7.218;2023-02-18T22:25:23;99337.75;;;13.49;100.00
18275;BME280;19470;49.322;7.218;2023-02-18T22:27:50;99342.28;;;13.32;100.00
18275;BME280;19470;49.322;7.218;2023-02-18T22:30:16;99325.72;;;13.85;100.00
18275;BME280;19470;49.322;7.218;2023-02-18T22:32:43;99333.13;;;13.83;100.00
18275;BME280;19470;49.322;7.218;2023-02-18T22:35:09;99333.91;;;14.00;100.00
18275;BME280;19470;49.322;7.218;2023-02-18T22:37:37;99339.97;;;13.96;100.00
18275;BME280;19470;49.322;7.218;2023-02-18T22:40:04;99347.44;;;13.55;100.00
18275;BME280;19470;49.322;7.218;2023-02-18T22:42:31;99333.66;;;13.24;100.00
18275;BME280;19470;49.322;7.218;2023-02-18T22:44:57;99331.66;;;13.70;100.00
18275;BME280;19470;49.322;7.218;2023-02-18T22:47:27;99324.44;;;13.15;100.00
18275;BME280;19470;49.322;7.218;2023-02-18T22:49:53;99319.69;;;13.51;100.00
18275;BME280;19470;49.322;7.218;2023-02-18T22:52:19;99338.53;;;13.66;100.00
18275;BME280;19470;49.322;7.218;2023-02-18T22:54:47;99324.44;;;13.49;100.00
18275;BME280;19470;49.322;7.218;2023-02-18T22:57:14;99318.22;;;13.60;100.00
18275;BME280;19470;49.322;7.218;2023-02-18T22:59:40;99315.97;;;13.01;100.00
18275;BME280;19470;49.322;7.218;2023-02-18T23:02:07;99323.28;;;13.62;100.00
18275;BME280;19470;49.322;7.218;2023-02-18T23:04:33;99308.13;;;13.23;100.00
18275;BME280;19470;49.322;7.218;2023-02-18T23:06:59;99327.41;;;13.02;100.00
18275;BME280;19470;49.322;7.218;2023-02-18T23:09:26;99321.16;;;13.42;100.00
18275;BME280;19470;49.322;7.218;2023-02-18T23:11:56;99333.78;;;13.01;100.00
18275;BME280;19470;49.322;7.218;2023-02-18T23:14:24;99323.69;;;13.53;100.00
18275;BME280;19470;49.322;7.218;2023-02-18T23:16:53;99329.69;;;13.44;100.00
18275;BME280;19470;49.322;7.218;2023-02-18T23:19:39;99317.09;;;13.78;100.00
18275;BME280;19470;49.322;7.218;2023-02-18T23:22:07;99323.00;;;13.41;100.00
18275;BME280;19470;49.322;7.218;2023-02-18T23:24:36;99318.50;;;13.64;100.00
18275;BME280;19470;49.322;7.218;2023-02-18T23:27:05;99316.78;;;13.02;100.00
18275;BME280;19470;49.322;7.218;2023-02-18T23:29:32;99327.09;;;13.49;100.00
18275;BME280;19470;49.322;7.218;2023-02-18T23:31:59;99316.69;;;12.97;100.00
18275;BME280;19470;49.322;7.218;2023-02-18T23:34:26;99295.06;;;14.04;100.00
18275;BME280;19470;49.322;7.218;2023-02-18T23:36:52;99300.34;;;13.55;100.00
18275;BME280;19470;49.322;7.218;2023-02-18T23:39:21;99302.44;;;13.20;100.00
18275;BME280;19470;49.322;7.218;2023-02-18T23:41:48;99311.66;;;13.29;100.00
18275;BME280;19470;49.322;7.218;2023-02-18T23:44:18;99310.00;;;13.45;100.00
18275;BME280;19470;49.322;7.218;2023-02-18T23:46:45;99321.63;;;13.22;100.00
18275;BME280;19470;49.322;7.218;2023-02-18T23:49:13;99309.84;;;13.51;100.00
18275;BME280;19470;49.322;7.218;2023-02-18T23:51:41;99307.06;;;13.41;100.00
18275;BME280;19470;49.322;7.218;2023-02-18T23:54:08;99296.88;;;13.21;100.00
18275;BME280;19470;49.322;7.218;2023-02-18T23:56:35;99299.63;;;12.93;100.00
18275;BME280;19470;49.322;7.218;2023-02-18T23:59:03;99306.78;;;12.92;100.00
